sensor_id;sensor_type;location;lat;lon;timestamp;P1;durP1;ratioP1;P2;durP2;ratioP2
55710;SDS011;41612;51.994;5.880;2023-11-19T00:00:26;28.02;;;21.05;;
55710;SDS011;41612;51.994;5.880;2023-11-19T00:04:31;26.73;;;18.77;;
55710;SDS011;41612;51.994;5.880;2023-11-19T00:17:44;25.70;;;17.35;;
55710;SDS011;41612;51.994;5.880;2023-11-19T00:23:05;24.40;;;17.02;;
55710;SDS011;41612;51.994;5.880;2023-11-19T00:25:31;28.85;;;17.23;;
55710;SDS011;41612;51.994;5.880;2023-11-19T00:27:58;31.02;;;18.20;;
55710;SDS011;41612;51.994;5.880;2023-11-19T00:30:24;26.17;;;18.30;;
55710;SDS011;41612;51.994;5.880;2023-11-19T00:33:36;24.30;;;17.48;;
55710;SDS011;41612;51.994;5.880;2023-11-19T00:37:21;27.60;;;18.52;;
55710;SDS011;41612;51.994;5.880;2023-11-19T00:40:07;23.30;;;17.23;;
55710;SDS011;41612;51.994;5.880;2023-11-19T00:48:44;27.90;;;15.40;;
55710;SDS011;41612;51.994;5.880;2023-11-19T00:51:20;24.38;;;15.38;;
55710;SDS011;41612;51.994;5.880;2023-11-19T00:53:51;33.83;;;15.77;;
55710;SDS011;41612;51.994;5.880;2023-11-19T00:56:18;31.25;;;13.88;;
55710;SDS011;41612;51.994;5.880;2023-11-19T00:58:44;18.20;;;10.50;;
55710;SDS011;41612;51.994;5.880;2023-11-19T01:01:13;24.70;;;11.15;;
55710;SDS011;41612;51.994;5.880;2023-11-19T01:03:39;19.27;;;9.80;;
55710;SDS011;41612;51.994;5.880;2023-11-19T01:06:05;21.50;;;8.98;;
55710;SDS011;41612;51.994;5.880;2023-11-19T01:08:31;18.50;;;9.73;;
55710;SDS011;41612;51.994;5.880;2023-11-19T01:10:56;27.08;;;9.43;;
55710;SDS011;41612;51.994;5.880;2023-11-19T01:13:22;27.95;;;10.15;;
55710;SDS011;41612;51.994;5.880;2023-11-19T01:15:47;24.02;;;9.30;;
55710;SDS011;41612;51.994;5.880;2023-11-19T01:18:13;25.75;;;10.02;;
55710;SDS011;41612;51.994;5.880;2023-11-19T01:20:39;25.55;;;9.40;;
55710;SDS011;41612;51.994;5.880;2023-11-19T01:23:05;16.02;;;7.82;;
55710;SDS011;41612;51.994;5.880;2023-11-19T01:25:30;12.90;;;5.88;;
55710;SDS011;41612;51.994;5.880;2023-11-19T01:27:56;23.67;;;8.20;;
55710;SDS011;41612;51.994;5.880;2023-11-19T01:30:25;29.88;;;8.30;;
55710;SDS011;41612;51.994;5.880;2023-11-19T01:32:51;30.77;;;8.30;;
55710;SDS011;41612;51.994;5.880;2023-11-19T01:35:17;37.00;;;8.13;;
55710;SDS011;41612;51.994;5.880;2023-11-19T01:37:42;33.33;;;8.63;;
55710;SDS011;41612;51.994;5.880;2023-11-19T01:40:08;27.17;;;8.48;;
55710;SDS011;41612;51.994;5.880;2023-11-19T01:42:39;24.95;;;7.45;;
55710;SDS011;41612;51.994;5.880;2023-11-19T01:45:06;21.63;;;6.72;;
55710;SDS011;41612;51.994;5.880;2023-11-19T01:47:35;19.00;;;6.97;;
55710;SDS011;41612;51.994;5.880;2023-11-19T01:50:01;20.88;;;7.10;;
55710;SDS011;41612;51.994;5.880;2023-11-19T01:52:32;28.42;;;7.93;;
55710;SDS011;41612;51.994;5.880;2023-11-19T01:55:01;26.85;;;7.60;;
55710;SDS011;41612;51.994;5.880;2023-11-19T01:57:28;21.38;;;6.20;;
55710;SDS011;41612;51.994;5.880;2023-11-19T03:27:25;39.30;;;7.10;;
55710;SDS011;41612;51.994;5.880;2023-11-19T03:29:51;44.38;;;8.13;;
55710;SDS011;41612;51.994;5.880;2023-11-19T03:32:19;39.17;;;6.63;;
55710;SDS011;41612;51.994;5.880;2023-11-19T03:34:45;55.92;;;9.18;;
55710;SDS011;41612;51.994;5.880;2023-11-19T03:37:12;41.47;;;8.02;;
55710;SDS011;41612;51.994;5.880;2023-11-19T03:39:42;41.03;;;7.50;;
55710;SDS011;41612;51.994;5.880;2023-11-19T03:42:55;43.58;;;9.40;;
55710;SDS011;41612;51.994;5.880;2023-11-19T03:45:35;32.03;;;6.97;;
55710;SDS011;41612;51.994;5.880;2023-11-19T03:48:01;44.22;;;11.70;;
55710;SDS011;41612;51.994;5.880;2023-11-19T03:50:28;50.67;;;13.15;;
55710;SDS011;41612;51.994;5.880;2023-11-19T03:53:00;46.20;;;10.90;;
55710;SDS011;41612;51.994;5.880;2023-11-19T03:55:26;45.40;;;10.50;;
55710;SDS011;41612;51.994;5.880;2023-11-19T03:58:04;38.83;;;9.25;;
55710;SDS011;41612;51.994;5.880;2023-11-19T04:00:30;50.00;;;11.23;;
55710;SDS011;41612;51.994;5.880;2023-11-19T04:02:57;37.53;;;9.15;;
55710;SDS011;41612;51.994;5.880;2023-11-19T04:05:26;55.63;;;10.70;;
55710;SDS011;41612;51.994;5.880;2023-11-19T04:08:17;31.85;;;7.63;;
55710;SDS011;41612;51.994;5.880;2023-11-19T04:10:44;37.80;;;6.75;;
55710;SDS011;41612;51.994;5.880;2023-11-19T04:13:10;41.17;;;7.63;;
55710;SDS011;41612;51.994;5.880;2023-11-19T04:15:37;33.80;;;5.78;;
55710;SDS011;41612;51.994;5.880;2023-11-19T04:18:10;43.85;;;6.75;;
55710;SDS011;41612;51.994;5.880;2023-11-19T04:21:05;40.83;;;7.50;;
55710;SDS011;41612;51.994;5.880;2023-11-19T04:23:44;36.03;;;7.55;;
55710;SDS011;41612;51.994;5.880;2023-11-19T04:26:11;39.90;;;7.22;;
55710;SDS011;41612;51.994;5.880;2023-11-19T04:28:42;36.30;;;6.97;;
55710;SDS011;41612;51.994;5.880;2023-11-19T04:31:35;39.55;;;6.45;;
55710;SDS011;41612;51.994;5.880;2023-11-19T04:34:04;43.45;;;8.73;;
55710;SDS011;41612;51.994;5.880;2023-11-19T04:36:32;41.08;;;8.05;;
55710;SDS011;41612;51.994;5.880;2023-11-19T04:39:29;39.58;;;8.48;;
55710;SDS011;41612;51.994;5.880;2023-11-19T04:42:16;23.08;;;4.32;;
55710;SDS011;41612;51.994;5.880;2023-11-19T04:44:42;45.08;;;7.13;;
55710;SDS011;41612;51.994;5.880;2023-11-19T04:47:08;32.55;;;7.68;;
55710;SDS011;41612;51.994;5.880;2023-11-19T04:49:39;47.90;;;9.45;;
55710;SDS011;41612;51.994;5.880;2023-11-19T04:52:07;42.70;;;6.20;;
55710;SDS011;41612;51.994;5.880;2023-11-19T04:54:33;35.80;;;7.38;;
55710;SDS011;41612;51.994;5.880;2023-11-19T04:56:59;36.00;;;5.55;;
55710;SDS011;41612;51.994;5.880;2023-11-19T04:59:24;29.20;;;5.45;;
55710;SDS011;41612;51.994;5.880;2023-11-19T05:01:50;33.83;;;6.72;;
55710;SDS011;41612;51.994;5.880;2023-11-19T05:04:16;37.00;;;6.95;;
55710;SDS011;41612;51.994;5.880;2023-11-19T05:06:43;45.90;;;7.50;;
55710;SDS011;41612;51.994;5.880;2023-11-19T05:09:09;48.05;;;8.32;;
55710;SDS011;41612;51.994;5.880;2023-11-19T05:11:38;44.20;;;7.05;;
55710;SDS011;41612;51.994;5.880;2023-11-19T05:14:04;40.70;;;7.55;;
55710;SDS011;41612;51.994;5.880;2023-11-19T05:16:30;61.30;;;9.85;;
55710;SDS011;41612;51.994;5.880;2023-11-19T05:18:56;33.75;;;6.65;;
55710;SDS011;41612;51.994;5.880;2023-11-19T05:21:22;43.25;;;7.32;;
55710;SDS011;41612;51.994;5.880;2023-11-19T05:23:48;38.50;;;7.68;;
55710;SDS011;41612;51.994;5.880;2023-11-19T05:26:17;42.42;;;8.48;;
55710;SDS011;41612;51.994;5.880;2023-11-19T05:28:47;38.47;;;8.30;;
55710;SDS011;41612;51.994;5.880;2023-11-19T05:31:13;49.17;;;9.05;;
55710;SDS011;41612;51.994;5.880;2023-11-19T05:33:39;41.60;;;7.30;;
55710;SDS011;41612;51.994;5.880;2023-11-19T05:36:05;30.20;;;5.30;;
55710;SDS011;41612;51.994;5.880;2023-11-19T05:38:33;47.75;;;8.40;;
55710;SDS011;41612;51.994;5.880;2023-11-19T05:41:02;40.40;;;7.72;;
55710;SDS011;41612;51.994;5.880;2023-11-19T05:43:29;29.20;;;5.28;;
55710;SDS011;41612;51.994;5.880;2023-11-19T05:45:55;42.03;;;7.95;;
55710;SDS011;41612;51.994;5.880;2023-11-19T05:48:21;32.90;;;6.60;;
55710;SDS011;41612;51.994;5.880;2023-11-19T05:51:49;40.72;;;8.43;;
55710;SDS011;41612;51.994;5.880;2023-11-19T06:21:46;36.03;;;7.25;;
55710;SDS011;41612;51.994;5.880;2023-11-19T06:24:44;53.85;;;9.25;;
55710;SDS011;41612;51.994;5.880;2023-11-19T07:02:28;27.15;;;4.63;;
55710;SDS011;41612;51.994;5.880;2023-11-19T07:04:54;25.98;;;6.30;;
55710;SDS011;41612;51.994;5.880;2023-11-19T07:07:19;44.45;;;8.40;;
55710;SDS011;41612;51.994;5.880;2023-11-19T07:09:45;44.47;;;11.20;;
55710;SDS011;41612;51.994;5.880;2023-11-19T07:12:11;52.33;;;10.48;;
55710;SDS011;41612;51.994;5.880;2023-11-19T07:14:38;48.75;;;7.63;;
55710;SDS011;41612;51.994;5.880;2023-11-19T07:17:04;42.55;;;6.97;;
55710;SDS011;41612;51.994;5.880;2023-11-19T07:19:29;55.38;;;9.18;;
55710;SDS011;41612;51.994;5.880;2023-11-19T07:21:58;40.63;;;7.45;;
55710;SDS011;41612;51.994;5.880;2023-11-19T07:24:24;54.50;;;8.88;;
55710;SDS011;41612;51.994;5.880;2023-11-19T07:26:50;39.85;;;9.40;;
55710;SDS011;41612;51.994;5.880;2023-11-19T07:29:18;50.40;;;7.47;;
55710;SDS011;41612;51.994;5.880;2023-11-19T07:31:44;52.58;;;8.70;;
55710;SDS011;41612;51.994;5.880;2023-11-19T07:34:10;43.22;;;8.40;;
55710;SDS011;41612;51.994;5.880;2023-11-19T07:36:40;46.15;;;8.50;;
55710;SDS011;41612;51.994;5.880;2023-11-19T07:39:10;31.25;;;5.47;;
55710;SDS011;41612;51.994;5.880;2023-11-19T07:41:38;27.92;;;5.13;;
55710;SDS011;41612;51.994;5.880;2023-11-19T07:44:04;42.25;;;7.43;;
55710;SDS011;41612;51.994;5.880;2023-11-19T07:46:31;46.28;;;7.65;;
55710;SDS011;41612;51.994;5.880;2023-11-19T07:49:01;31.45;;;7.07;;
55710;SDS011;41612;51.994;5.880;2023-11-19T07:51:40;37.50;;;7.88;;
55710;SDS011;41612;51.994;5.880;2023-11-19T07:54:07;37.70;;;6.72;;
55710;SDS011;41612;51.994;5.880;2023-11-19T07:56:35;18.63;;;4.65;;
55710;SDS011;41612;51.994;5.880;2023-11-19T07:59:04;30.63;;;5.90;;
55710;SDS011;41612;51.994;5.880;2023-11-19T08:01:32;27.08;;;5.72;;
55710;SDS011;41612;51.994;5.880;2023-11-19T08:04:01;32.33;;;6.82;;
55710;SDS011;41612;51.994;5.880;2023-11-19T08:06:27;47.85;;;8.45;;
55710;SDS011;41612;51.994;5.880;2023-11-19T08:08:52;50.25;;;9.02;;
55710;SDS011;41612;51.994;5.880;2023-11-19T08:11:18;40.80;;;7.65;;
55710;SDS011;41612;51.994;5.880;2023-11-19T08:13:44;33.67;;;7.22;;
55710;SDS011;41612;51.994;5.880;2023-11-19T08:16:10;34.53;;;5.53;;
55710;SDS011;41612;51.994;5.880;2023-11-19T08:18:36;45.72;;;7.57;;
55710;SDS011;41612;51.994;5.880;2023-11-19T08:21:02;35.30;;;6.22;;
55710;SDS011;41612;51.994;5.880;2023-11-19T08:23:29;48.15;;;8.63;;
55710;SDS011;41612;51.994;5.880;2023-11-19T08:25:55;44.08;;;8.85;;
55710;SDS011;41612;51.994;5.880;2023-11-19T08:28:21;35.88;;;6.93;;
55710;SDS011;41612;51.994;5.880;2023-11-19T08:30:46;44.20;;;8.10;;
55710;SDS011;41612;51.994;5.880;2023-11-19T08:33:12;40.72;;;7.53;;
55710;SDS011;41612;51.994;5.880;2023-11-19T08:35:38;54.05;;;8.63;;
55710;SDS011;41612;51.994;5.880;2023-11-19T08:38:03;40.17;;;8.45;;
55710;SDS011;41612;51.994;5.880;2023-11-19T08:40:29;37.60;;;6.95;;
55710;SDS011;41612;51.994;5.880;2023-11-19T08:42:55;42.85;;;8.70;;
55710;SDS011;41612;51.994;5.880;2023-11-19T08:45:21;35.20;;;8.32;;
55710;SDS011;41612;51.994;5.880;2023-11-19T08:47:47;39.92;;;7.45;;
55710;SDS011;41612;51.994;5.880;2023-11-19T08:50:13;24.88;;;6.18;;
55710;SDS011;41612;51.994;5.880;2023-11-19T08:52:38;37.55;;;6.82;;
55710;SDS011;41612;51.994;5.880;2023-11-19T08:55:04;55.28;;;10.40;;
55710;SDS011;41612;51.994;5.880;2023-11-19T08:57:30;26.52;;;4.63;;
55710;SDS011;41612;51.994;5.880;2023-11-19T08:59:57;40.92;;;6.82;;
55710;SDS011;41612;51.994;5.880;2023-11-19T09:02:23;38.00;;;6.40;;
55710;SDS011;41612;51.994;5.880;2023-11-19T09:04:49;43.85;;;8.73;;
55710;SDS011;41612;51.994;5.880;2023-11-19T09:07:14;52.90;;;11.20;;
55710;SDS011;41612;51.994;5.880;2023-11-19T09:09:40;32.17;;;6.20;;
55710;SDS011;41612;51.994;5.880;2023-11-19T09:12:08;37.65;;;6.75;;
55710;SDS011;41612;51.994;5.880;2023-11-19T09:14:38;34.63;;;6.85;;
55710;SDS011;41612;51.994;5.880;2023-11-19T09:17:04;40.03;;;7.57;;
55710;SDS011;41612;51.994;5.880;2023-11-19T09:19:32;38.78;;;6.82;;
55710;SDS011;41612;51.994;5.880;2023-11-19T09:21:58;37.10;;;7.20;;
55710;SDS011;41612;51.994;5.880;2023-11-19T09:24:23;29.58;;;6.63;;
55710;SDS011;41612;51.994;5.880;2023-11-19T09:26:49;44.08;;;8.32;;
55710;SDS011;41612;51.994;5.880;2023-11-19T09:29:15;29.75;;;6.53;;
55710;SDS011;41612;51.994;5.880;2023-11-19T09:31:41;40.13;;;7.13;;
55710;SDS011;41612;51.994;5.880;2023-11-19T09:34:07;39.45;;;6.15;;
55710;SDS011;41612;51.994;5.880;2023-11-19T09:36:33;32.35;;;6.30;;
55710;SDS011;41612;51.994;5.880;2023-11-19T09:38:59;43.63;;;8.55;;
55710;SDS011;41612;51.994;5.880;2023-11-19T09:41:29;36.97;;;6.35;;
55710;SDS011;41612;51.994;5.880;2023-11-19T09:43:56;41.15;;;7.10;;
55710;SDS011;41612;51.994;5.880;2023-11-19T09:46:22;30.90;;;7.10;;
55710;SDS011;41612;51.994;5.880;2023-11-19T09:48:51;35.85;;;5.82;;
55710;SDS011;41612;51.994;5.880;2023-11-19T09:51:20;31.73;;;6.07;;
55710;SDS011;41612;51.994;5.880;2023-11-19T09:53:47;42.15;;;7.47;;
55710;SDS011;41612;51.994;5.880;2023-11-19T09:56:14;46.78;;;8.77;;
55710;SDS011;41612;51.994;5.880;2023-11-19T09:58:41;23.55;;;5.70;;
55710;SDS011;41612;51.994;5.880;2023-11-19T10:01:09;30.33;;;5.82;;
55710;SDS011;41612;51.994;5.880;2023-11-19T10:03:37;30.42;;;7.22;;
55710;SDS011;41612;51.994;5.880;2023-11-19T10:06:09;41.25;;;8.48;;
55710;SDS011;41612;51.994;5.880;2023-11-19T10:08:39;43.15;;;7.97;;
55710;SDS011;41612;51.994;5.880;2023-11-19T10:11:08;31.95;;;7.20;;
55710;SDS011;41612;51.994;5.880;2023-11-19T10:13:36;46.28;;;7.20;;
55710;SDS011;41612;51.994;5.880;2023-11-19T10:16:04;29.33;;;6.25;;
55710;SDS011;41612;51.994;5.880;2023-11-19T10:18:51;36.58;;;7.68;;
55710;SDS011;41612;51.994;5.880;2023-11-19T10:21:17;43.50;;;6.72;;
55710;SDS011;41612;51.994;5.880;2023-11-19T10:23:54;32.90;;;6.70;;
55710;SDS011;41612;51.994;5.880;2023-11-19T10:26:25;30.38;;;5.63;;
55710;SDS011;41612;51.994;5.880;2023-11-19T10:28:52;35.13;;;6.13;;
55710;SDS011;41612;51.994;5.880;2023-11-19T10:31:19;34.15;;;6.28;;
55710;SDS011;41612;51.994;5.880;2023-11-19T10:33:57;32.10;;;6.18;;
55710;SDS011;41612;51.994;5.880;2023-11-19T10:36:25;28.08;;;4.78;;
55710;SDS011;41612;51.994;5.880;2023-11-19T10:39:03;28.17;;;5.57;;
55710;SDS011;41612;51.994;5.880;2023-11-19T10:41:32;39.28;;;7.45;;
55710;SDS011;41612;51.994;5.880;2023-11-19T10:43:58;24.73;;;6.13;;
55710;SDS011;41612;51.994;5.880;2023-11-19T10:46:36;34.92;;;5.90;;
55710;SDS011;41612;51.994;5.880;2023-11-19T10:49:06;39.65;;;6.93;;
55710;SDS011;41612;51.994;5.880;2023-11-19T10:51:33;40.50;;;7.68;;
55710;SDS011;41612;51.994;5.880;2023-11-19T10:54:05;29.15;;;5.90;;
55710;SDS011;41612;51.994;5.880;2023-11-19T10:56:32;28.20;;;5.97;;
55710;SDS011;41612;51.994;5.880;2023-11-19T10:58:59;37.92;;;7.10;;
55710;SDS011;41612;51.994;5.880;2023-11-19T11:01:34;33.92;;;6.30;;
55710;SDS011;41612;51.994;5.880;2023-11-19T11:04:14;32.50;;;6.32;;
55710;SDS011;41612;51.994;5.880;2023-11-19T11:06:48;26.17;;;6.57;;
55710;SDS011;41612;51.994;5.880;2023-11-19T11:09:16;28.38;;;6.18;;
55710;SDS011;41612;51.994;5.880;2023-11-19T11:11:46;30.83;;;5.95;;
55710;SDS011;41612;51.994;5.880;2023-11-19T11:14:21;32.15;;;7.55;;
55710;SDS011;41612;51.994;5.880;2023-11-19T11:16:48;23.45;;;5.55;;
55710;SDS011;41612;51.994;5.880;2023-11-19T11:19:22;33.53;;;5.80;;
55710;SDS011;41612;51.994;5.880;2023-11-19T11:21:54;32.42;;;7.00;;
55710;SDS011;41612;51.994;5.880;2023-11-19T11:24:44;18.48;;;5.28;;
55710;SDS011;41612;51.994;5.880;2023-11-19T11:27:43;36.95;;;6.63;;
55710;SDS011;41612;51.994;5.880;2023-11-19T11:33:26;24.55;;;5.18;;
55710;SDS011;41612;51.994;5.880;2023-11-19T11:36:15;38.97;;;6.93;;
55710;SDS011;41612;51.994;5.880;2023-11-19T11:38:53;32.97;;;7.05;;
55710;SDS011;41612;51.994;5.880;2023-11-19T11:41:32;31.95;;;6.90;;
55710;SDS011;41612;51.994;5.880;2023-11-19T11:43:58;29.38;;;6.35;;
55710;SDS011;41612;51.994;5.880;2023-11-19T11:49:02;30.42;;;5.75;;
55710;SDS011;41612;51.994;5.880;2023-11-19T11:57:02;24.20;;;5.60;;
55710;SDS011;41612;51.994;5.880;2023-11-19T11:59:44;29.52;;;6.30;;
55710;SDS011;41612;51.994;5.880;2023-11-19T12:02:15;27.30;;;5.60;;
55710;SDS011;41612;51.994;5.880;2023-11-19T12:04:59;35.77;;;7.57;;
55710;SDS011;41612;51.994;5.880;2023-11-19T12:07:28;33.92;;;7.30;;
55710;SDS011;41612;51.994;5.880;2023-11-19T12:12:39;18.77;;;4.80;;
55710;SDS011;41612;51.994;5.880;2023-11-19T12:15:09;24.83;;;5.88;;
55710;SDS011;41612;51.994;5.880;2023-11-19T12:20:07;24.15;;;5.18;;
55710;SDS011;41612;51.994;5.880;2023-11-19T12:22:40;30.75;;;5.75;;
55710;SDS011;41612;51.994;5.880;2023-11-19T12:25:06;24.38;;;4.93;;
55710;SDS011;41612;51.994;5.880;2023-11-19T12:27:49;19.08;;;4.65;;
55710;SDS011;41612;51.994;5.880;2023-11-19T12:30:23;21.98;;;4.70;;
55710;SDS011;41612;51.994;5.880;2023-11-19T12:32:50;26.40;;;5.07;;
55710;SDS011;41612;51.994;5.880;2023-11-19T12:35:23;29.35;;;5.35;;
55710;SDS011;41612;51.994;5.880;2023-11-19T12:37:50;21.65;;;5.50;;
55710;SDS011;41612;51.994;5.880;2023-11-19T12:40:23;20.42;;;4.25;;
55710;SDS011;41612;51.994;5.880;2023-11-19T12:42:50;21.95;;;5.10;;
55710;SDS011;41612;51.994;5.880;2023-11-19T12:45:19;27.80;;;7.15;;
55710;SDS011;41612;51.994;5.880;2023-11-19T12:47:46;19.60;;;3.55;;
55710;SDS011;41612;51.994;5.880;2023-11-19T12:50:14;24.70;;;4.95;;
55710;SDS011;41612;51.994;5.880;2023-11-19T12:52:54;17.00;;;4.97;;
55710;SDS011;41612;51.994;5.880;2023-11-19T12:55:29;22.88;;;5.05;;
55710;SDS011;41612;51.994;5.880;2023-11-19T12:57:58;17.27;;;4.60;;
55710;SDS011;41612;51.994;5.880;2023-11-19T13:00:27;16.85;;;4.28;;
55710;SDS011;41612;51.994;5.880;2023-11-19T13:02:55;23.00;;;4.35;;
55710;SDS011;41612;51.994;5.880;2023-11-19T13:05:26;22.33;;;4.10;;
55710;SDS011;41612;51.994;5.880;2023-11-19T13:08:06;27.45;;;4.82;;
55710;SDS011;41612;51.994;5.880;2023-11-19T13:13:26;20.60;;;4.60;;
55710;SDS011;41612;51.994;5.880;2023-11-19T13:16:03;20.17;;;3.78;;
55710;SDS011;41612;51.994;5.880;2023-11-19T13:18:34;20.60;;;5.50;;
55710;SDS011;41612;51.994;5.880;2023-11-19T13:21:00;21.75;;;5.03;;
55710;SDS011;41612;51.994;5.880;2023-11-19T13:23:29;22.52;;;4.32;;
55710;SDS011;41612;51.994;5.880;2023-11-19T13:25:56;16.75;;;4.50;;
55710;SDS011;41612;51.994;5.880;2023-11-19T13:28:24;18.92;;;4.32;;
55710;SDS011;41612;51.994;5.880;2023-11-19T13:30:54;31.60;;;7.45;;
55710;SDS011;41612;51.994;5.880;2023-11-19T13:33:22;19.17;;;4.35;;
55710;SDS011;41612;51.994;5.880;2023-11-19T13:36:01;28.65;;;5.30;;
55710;SDS011;41612;51.994;5.880;2023-11-19T13:38:34;30.25;;;6.15;;
55710;SDS011;41612;51.994;5.880;2023-11-19T13:41:07;25.48;;;5.28;;
55710;SDS011;41612;51.994;5.880;2023-11-19T13:43:39;27.58;;;6.25;;
55710;SDS011;41612;51.994;5.880;2023-11-19T13:46:05;18.33;;;3.50;;
55710;SDS011;41612;51.994;5.880;2023-11-19T13:48:35;33.50;;;5.47;;
55710;SDS011;41612;51.994;5.880;2023-11-19T13:51:03;22.73;;;4.97;;
55710;SDS011;41612;51.994;5.880;2023-11-19T13:53:29;30.17;;;5.78;;
55710;SDS011;41612;51.994;5.880;2023-11-19T13:55:54;27.65;;;5.70;;
55710;SDS011;41612;51.994;5.880;2023-11-19T13:58:23;25.42;;;5.75;;
55710;SDS011;41612;51.994;5.880;2023-11-19T14:00:48;28.75;;;5.25;;
55710;SDS011;41612;51.994;5.880;2023-11-19T14:03:15;18.95;;;4.45;;
55710;SDS011;41612;51.994;5.880;2023-11-19T14:05:41;18.77;;;4.63;;
55710;SDS011;41612;51.994;5.880;2023-11-19T14:08:07;32.72;;;6.03;;
55710;SDS011;41612;51.994;5.880;2023-11-19T14:10:39;31.67;;;6.85;;
55710;SDS011;41612;51.994;5.880;2023-11-19T14:13:08;30.38;;;6.22;;
55710;SDS011;41612;51.994;5.880;2023-11-19T14:15:34;25.08;;;5.55;;
55710;SDS011;41612;51.994;5.880;2023-11-19T14:18:00;14.40;;;3.22;;
55710;SDS011;41612;51.994;5.880;2023-11-19T14:20:30;27.00;;;5.60;;
55710;SDS011;41612;51.994;5.880;2023-11-19T14:22:55;25.67;;;4.85;;
55710;SDS011;41612;51.994;5.880;2023-11-19T14:25:23;14.20;;;3.92;;
55710;SDS011;41612;51.994;5.880;2023-11-19T14:27:50;15.38;;;3.42;;
55710;SDS011;41612;51.994;5.880;2023-11-19T14:30:16;20.73;;;5.15;;
55710;SDS011;41612;51.994;5.880;2023-11-19T14:32:42;27.50;;;6.38;;
55710;SDS011;41612;51.994;5.880;2023-11-19T14:35:09;21.38;;;4.65;;
55710;SDS011;41612;51.994;5.880;2023-11-19T14:37:35;28.48;;;6.20;;
55710;SDS011;41612;51.994;5.880;2023-11-19T14:40:01;20.42;;;5.22;;
55710;SDS011;41612;51.994;5.880;2023-11-19T14:42:31;29.77;;;6.65;;
55710;SDS011;41612;51.994;5.880;2023-11-19T14:44:57;24.83;;;6.47;;
55710;SDS011;41612;51.994;5.880;2023-11-19T14:47:23;21.08;;;4.88;;
55710;SDS011;41612;51.994;5.880;2023-11-19T14:49:50;32.15;;;6.97;;
55710;SDS011;41612;51.994;5.880;2023-11-19T14:52:18;22.05;;;4.35;;
55710;SDS011;41612;51.994;5.880;2023-11-19T14:54:44;26.25;;;5.45;;
55710;SDS011;41612;51.994;5.880;2023-11-19T14:57:11;26.33;;;4.85;;
55710;SDS011;41612;51.994;5.880;2023-11-19T14:59:38;23.95;;;4.53;;
55710;SDS011;41612;51.994;5.880;2023-11-19T15:02:04;28.92;;;5.45;;
55710;SDS011;41612;51.994;5.880;2023-11-19T15:04:31;25.88;;;4.75;;
55710;SDS011;41612;51.994;5.880;2023-11-19T15:07:00;26.23;;;5.55;;
55710;SDS011;41612;51.994;5.880;2023-11-19T15:09:33;24.65;;;5.03;;
55710;SDS011;41612;51.994;5.880;2023-11-19T15:12:01;28.85;;;5.13;;
55710;SDS011;41612;51.994;5.880;2023-11-19T15:14:30;24.30;;;6.18;;
55710;SDS011;41612;51.994;5.880;2023-11-19T15:16:56;24.58;;;4.95;;
55710;SDS011;41612;51.994;5.880;2023-11-19T15:19:22;23.75;;;6.15;;
55710;SDS011;41612;51.994;5.880;2023-11-19T15:21:51;30.02;;;6.20;;
55710;SDS011;41612;51.994;5.880;2023-11-19T15:24:17;32.40;;;7.15;;
55710;SDS011;41612;51.994;5.880;2023-11-19T15:26:42;24.05;;;4.45;;
55710;SDS011;41612;51.994;5.880;2023-11-19T15:29:08;28.58;;;5.00;;
55710;SDS011;41612;51.994;5.880;2023-11-19T15:31:35;23.63;;;4.75;;
55710;SDS011;41612;51.994;5.880;2023-11-19T15:34:01;30.15;;;5.45;;
55710;SDS011;41612;51.994;5.880;2023-11-19T15:36:27;27.92;;;4.97;;
55710;SDS011;41612;51.994;5.880;2023-11-19T15:39:00;25.73;;;5.40;;
55710;SDS011;41612;51.994;5.880;2023-11-19T15:41:35;28.40;;;5.38;;
55710;SDS011;41612;51.994;5.880;2023-11-19T15:44:04;30.05;;;4.68;;
55710;SDS011;41612;51.994;5.880;2023-11-19T15:46:31;25.10;;;5.72;;
55710;SDS011;41612;51.994;5.880;2023-11-19T15:48:57;23.25;;;4.97;;
55710;SDS011;41612;51.994;5.880;2023-11-19T15:51:22;23.80;;;4.88;;
55710;SDS011;41612;51.994;5.880;2023-11-19T15:53:48;25.00;;;4.47;;
55710;SDS011;41612;51.994;5.880;2023-11-19T15:56:14;21.90;;;4.82;;
55710;SDS011;41612;51.994;5.880;2023-11-19T15:58:39;24.08;;;6.25;;
55710;SDS011;41612;51.994;5.880;2023-11-19T16:01:06;19.48;;;4.82;;
55710;SDS011;41612;51.994;5.880;2023-11-19T16:03:33;26.80;;;5.28;;
55710;SDS011;41612;51.994;5.880;2023-11-19T16:05:59;27.15;;;5.30;;
55710;SDS011;41612;51.994;5.880;2023-11-19T16:08:24;20.77;;;6.00;;
55710;SDS011;41612;51.994;5.880;2023-11-19T16:10:50;27.75;;;6.88;;
55710;SDS011;41612;51.994;5.880;2023-11-19T16:13:16;23.42;;;4.72;;
55710;SDS011;41612;51.994;5.880;2023-11-19T16:15:42;29.55;;;4.35;;
55710;SDS011;41612;51.994;5.880;2023-11-19T16:18:07;26.92;;;4.88;;
55710;SDS011;41612;51.994;5.880;2023-11-19T16:20:35;24.45;;;5.10;;
55710;SDS011;41612;51.994;5.880;2023-11-19T16:23:01;21.23;;;4.57;;
55710;SDS011;41612;51.994;5.880;2023-11-19T16:25:32;22.25;;;5.07;;
55710;SDS011;41612;51.994;5.880;2023-11-19T16:28:00;20.27;;;4.82;;
55710;SDS011;41612;51.994;5.880;2023-11-19T16:30:27;29.27;;;6.07;;
55710;SDS011;41612;51.994;5.880;2023-11-19T16:32:59;21.95;;;5.97;;
55710;SDS011;41612;51.994;5.880;2023-11-19T16:35:25;26.55;;;5.10;;
55710;SDS011;41612;51.994;5.880;2023-11-19T16:37:52;29.38;;;7.97;;
55710;SDS011;41612;51.994;5.880;2023-11-19T16:40:19;24.70;;;5.53;;
55710;SDS011;41612;51.994;5.880;2023-11-19T16:42:45;27.40;;;6.20;;
55710;SDS011;41612;51.994;5.880;2023-11-19T16:45:12;23.50;;;4.63;;
55710;SDS011;41612;51.994;5.880;2023-11-19T16:47:41;33.42;;;5.60;;
55710;SDS011;41612;51.994;5.880;2023-11-19T16:50:09;29.83;;;5.63;;
55710;SDS011;41612;51.994;5.880;2023-11-19T16:52:37;31.08;;;6.00;;
55710;SDS011;41612;51.994;5.880;2023-11-19T16:55:05;31.35;;;6.28;;
55710;SDS011;41612;51.994;5.880;2023-11-19T16:57:37;22.38;;;5.95;;
55710;SDS011;41612;51.994;5.880;2023-11-19T17:00:09;25.23;;;5.18;;
55710;SDS011;41612;51.994;5.880;2023-11-19T17:30:26;22.25;;;5.90;;
55710;SDS011;41612;51.994;5.880;2023-11-19T17:34:03;25.65;;;6.22;;
55710;SDS011;41612;51.994;5.880;2023-11-19T17:37:22;18.42;;;3.90;;
55710;SDS011;41612;51.994;5.880;2023-11-19T17:50:31;19.83;;;5.75;;
55710;SDS011;41612;51.994;5.880;2023-11-19T17:52:59;19.17;;;6.03;;
55710;SDS011;41612;51.994;5.880;2023-11-19T17:55:42;21.92;;;5.07;;
55710;SDS011;41612;51.994;5.880;2023-11-19T18:44:27;26.20;;;6.93;;
55710;SDS011;41612;51.994;5.880;2023-11-19T18:46:56;15.95;;;6.00;;
55710;SDS011;41612;51.994;5.880;2023-11-19T18:49:29;23.23;;;7.03;;
55710;SDS011;41612;51.994;5.880;2023-11-19T18:51:58;22.42;;;5.60;;
55710;SDS011;41612;51.994;5.880;2023-11-19T18:54:27;19.88;;;6.80;;
55710;SDS011;41612;51.994;5.880;2023-11-19T18:59:40;23.58;;;9.13;;
55710;SDS011;41612;51.994;5.880;2023-11-19T19:02:09;27.20;;;10.20;;
55710;SDS011;41612;51.994;5.880;2023-11-19T19:22:23;18.23;;;7.32;;
55710;SDS011;41612;51.994;5.880;2023-11-19T19:25:13;27.63;;;8.55;;
55710;SDS011;41612;51.994;5.880;2023-11-19T19:57:20;20.65;;;9.38;;
55710;SDS011;41612;51.994;5.880;2023-11-19T20:05:49;20.17;;;9.50;;
55710;SDS011;41612;51.994;5.880;2023-11-19T21:13:16;22.35;;;7.07;;
55710;SDS011;41612;51.994;5.880;2023-11-19T21:15:45;26.08;;;7.22;;
55710;SDS011;41612;51.994;5.880;2023-11-19T21:18:17;23.55;;;7.35;;
55710;SDS011;41612;51.994;5.880;2023-11-19T21:20:47;25.58;;;8.38;;
55710;SDS011;41612;51.994;5.880;2023-11-19T21:23:13;19.77;;;7.10;;
55710;SDS011;41612;51.994;5.880;2023-11-19T21:25:39;25.80;;;7.75;;